createdAt,value
2022-08-01T01:03:05.174Z,100
2022-08-01T02:25:05.050Z,100
2022-08-01T02:39:05.089Z,100
2022-08-01T02:46:05.064Z,100
2022-08-01T02:53:05.068Z,100
2022-08-01T03:09:05.068Z,100
2022-08-01T03:12:05.543Z,100
2022-08-01T03:16:05.071Z,100
2022-08-01T03:23:05.087Z,100
2022-08-01T03:44:05.052Z,100
2022-08-01T03:47:05.068Z,100
2022-08-01T04:08:05.118Z,100
2022-08-01T04:10:05.058Z,100
2022-08-01T04:11:05.056Z,100
2022-08-01T04:13:05.054Z,100
2022-08-01T04:14:09.264Z,100
2022-08-01T04:15:05.125Z,100
2022-08-01T04:16:05.059Z,100
2022-08-01T04:18:05.051Z,100
2022-08-01T04:19:05.053Z,100
2022-08-01T04:20:05.081Z,100
2022-08-01T04:21:05.054Z,100
2022-08-01T04:22:05.274Z,100
2022-08-01T04:24:05.073Z,100
2022-08-01T04:25:05.077Z,100
2022-08-01T04:26:05.087Z,100
2022-08-01T04:27:05.060Z,100
2022-08-01T04:28:05.072Z,100
2022-08-01T04:29:05.064Z,100
2022-08-01T04:30:05.061Z,100
2022-08-01T04:31:05.065Z,100
2022-08-01T04:32:05.433Z,100
2022-08-01T04:33:05.068Z,100
2022-08-01T04:34:05.058Z,100
2022-08-01T04:35:05.068Z,100
2022-08-01T04:36:05.259Z,100
2022-08-01T04:37:05.063Z,100
2022-08-01T04:38:05.061Z,100
2022-08-01T04:39:05.058Z,100
2022-08-01T04:40:05.064Z,100
2022-08-01T04:41:09.174Z,100
2022-08-01T04:42:05.418Z,100
2022-08-01T04:43:05.067Z,100
2022-08-01T04:44:05.062Z,100
2022-08-01T04:45:05.080Z,100
2022-08-01T04:46:05.166Z,100
2022-08-01T04:47:05.066Z,100
2022-08-01T04:49:05.143Z,100
2022-08-01T04:50:05.069Z,100
2022-08-01T04:51:05.090Z,100
2022-08-01T04:52:05.354Z,100
2022-08-01T04:53:05.063Z,100
2022-08-01T04:54:05.076Z,100
2022-08-01T04:55:05.072Z,100
2022-08-01T04:56:05.074Z,100
2022-08-01T04:57:05.076Z,100
2022-08-01T04:58:05.075Z,100
2022-08-01T04:59:05.079Z,100
2022-08-01T05:00:05.082Z,100
2022-08-01T05:01:05.173Z,100
2022-08-01T05:02:05.401Z,100
2022-08-01T05:03:05.096Z,100
2022-08-01T05:04:05.079Z,100
2022-08-01T05:05:05.075Z,100
2022-08-01T05:06:05.074Z,100
2022-08-01T05:07:05.079Z,100
2022-08-01T05:08:05.085Z,100
2022-08-01T05:09:05.082Z,100
2022-08-01T05:10:05.691Z,100
2022-08-01T05:11:05.092Z,100
2022-08-01T05:12:05.375Z,100
2022-08-01T05:13:05.082Z,100
2022-08-01T05:14:05.139Z,100
2022-08-01T05:15:05.087Z,100
2022-08-01T05:16:05.085Z,100
2022-08-01T05:17:05.081Z,100
2022-08-01T05:18:05.082Z,100
2022-08-01T05:19:05.097Z,100
2022-08-01T05:20:05.088Z,100
2022-08-01T05:21:05.149Z,100
2022-08-01T05:22:05.405Z,100
2022-08-01T05:23:05.078Z,100
2022-08-01T05:24:05.093Z,100
2022-08-01T05:25:05.093Z,100
2022-08-01T05:26:05.087Z,100
2022-08-01T05:27:05.114Z,100
2022-08-01T05:28:05.092Z,100
2022-08-01T05:29:05.087Z,100
2022-08-01T05:30:05.098Z,100
2022-08-01T05:31:05.091Z,100
2022-08-01T05:32:05.470Z,100
2022-08-01T05:33:05.092Z,100
2022-08-01T05:34:05.099Z,100
2022-08-01T05:35:05.104Z,100
2022-08-01T05:36:05.094Z,100
2022-08-01T05:37:05.097Z,100
2022-08-01T05:38:05.105Z,100
2022-08-01T05:39:05.103Z,100
2022-08-01T05:40:05.096Z,100
2022-08-01T05:41:05.091Z,100
2022-08-01T05:42:05.375Z,100
2022-08-01T05:43:05.089Z,100
2022-08-01T05:44:05.105Z,100
2022-08-01T05:45:05.096Z,100
2022-08-01T05:46:05.098Z,100
2022-08-01T05:47:05.108Z,100
2022-08-01T05:48:05.092Z,100
2022-08-01T05:49:05.156Z,100
2022-08-01T05:50:05.104Z,100
2022-08-01T05:51:05.100Z,100
2022-08-01T05:52:05.427Z,100
2022-08-01T05:53:05.105Z,100
2022-08-01T05:54:05.099Z,100
2022-08-01T05:55:05.103Z,100
2022-08-01T05:56:05.132Z,100
2022-08-01T05:57:05.143Z,100
2022-08-01T05:58:05.111Z,100
2022-08-01T05:59:05.107Z,100
2022-08-01T06:00:05.109Z,100
2022-08-01T06:01:05.107Z,100
2022-08-01T06:02:05.518Z,100
2022-08-01T06:03:05.112Z,100
2022-08-01T06:04:05.106Z,100
2022-08-01T06:05:05.126Z,100
2022-08-01T06:06:05.109Z,100
2022-08-01T06:07:05.119Z,100
2022-08-01T06:08:05.177Z,100
2022-08-01T06:09:05.111Z,100
2022-08-01T06:10:05.115Z,100
2022-08-01T06:11:05.112Z,100
2022-08-01T06:12:05.413Z,100
2022-08-01T06:13:05.108Z,100
2022-08-01T06:14:05.119Z,100
2022-08-01T06:15:05.166Z,100
2022-08-01T06:16:05.120Z,100
2022-08-01T06:17:05.117Z,100
2022-08-01T06:18:05.123Z,100
2022-08-01T06:19:05.120Z,100
2022-08-01T06:20:05.122Z,100
2022-08-01T06:21:05.117Z,100
2022-08-01T06:22:05.500Z,100
2022-08-01T06:23:13.650Z,100
2022-08-01T06:24:05.120Z,100
2022-08-01T06:25:05.123Z,100
2022-08-01T06:26:05.119Z,100
2022-08-01T06:27:05.124Z,100
2022-08-01T06:28:05.127Z,100
2022-08-01T06:29:05.186Z,100
2022-08-01T06:30:05.126Z,100
2022-08-01T06:31:05.123Z,100
2022-08-01T06:32:05.337Z,100
2022-08-01T06:33:05.131Z,100
2022-08-01T06:34:05.125Z,100
2022-08-01T06:35:05.131Z,100
2022-08-01T06:36:05.127Z,100
2022-08-01T06:37:06.874Z,99.6
2022-08-01T06:38:05.129Z,99.4
2022-08-01T06:39:05.127Z,100
2022-08-01T06:40:05.123Z,100
2022-08-01T06:41:05.130Z,99.1
2022-08-01T06:42:05.447Z,99.6
2022-08-01T06:43:05.192Z,100
2022-08-01T06:44:05.140Z,100
2022-08-01T06:45:05.133Z,96.3
2022-08-01T06:46:05.133Z,96.1
2022-08-01T06:47:05.126Z,96.3
2022-08-01T06:48:05.141Z,94.2
2022-08-01T06:49:05.238Z,95.4
2022-08-01T06:50:05.190Z,94.4
2022-08-01T06:51:05.139Z,93.6
2022-08-01T06:52:05.539Z,92.7
2022-08-01T06:53:05.136Z,92
2022-08-01T06:54:05.144Z,92.7
2022-08-01T06:55:05.139Z,93.4
2022-08-01T06:56:05.161Z,93.6
2022-08-01T06:57:05.193Z,92.5
2022-08-01T06:58:05.136Z,92.3
2022-08-01T07:00:05.150Z,91.6
2022-08-01T07:01:05.313Z,91.8
2022-08-01T07:02:05.446Z,92.2
2022-08-01T07:03:05.147Z,92.2
2022-08-01T07:04:05.204Z,91.7
2022-08-01T07:05:05.148Z,90.5
2022-08-01T07:06:05.148Z,91.5
2022-08-01T07:07:05.142Z,90.7
2022-08-01T07:08:05.161Z,90.2
2022-08-01T07:09:10.801Z,90.9
2022-08-01T07:10:05.143Z,90.4
2022-08-01T07:11:05.192Z,89
2022-08-01T07:12:05.455Z,89.5
2022-08-01T07:13:05.585Z,89.1
2022-08-01T07:14:05.146Z,90.8
2022-08-01T07:15:05.151Z,90.3
2022-08-01T07:16:05.146Z,91.4
2022-08-01T07:17:05.145Z,91.7
2022-08-01T07:18:05.212Z,93.4
2022-08-01T07:19:05.151Z,90.9
2022-08-01T07:20:05.148Z,91.6
2022-08-01T07:21:05.152Z,91.6
2022-08-01T07:22:05.537Z,91.5
2022-08-01T07:23:05.160Z,88.4
2022-08-01T07:24:09.214Z,89.8
2022-08-01T07:25:05.222Z,90.5
2022-08-01T07:26:05.157Z,87.1
2022-08-01T07:27:24.196Z,88.3
2022-08-01T07:28:05.155Z,85.6
2022-08-01T07:29:05.154Z,89.2
2022-08-01T07:30:05.163Z,88.9
2022-08-01T07:31:05.156Z,89.9
2022-08-01T07:32:05.507Z,92.1
2022-08-01T07:33:05.161Z,89.7
2022-08-01T07:34:05.152Z,88.9
2022-08-01T07:35:05.162Z,87.7
2022-08-01T07:36:05.176Z,85.9
2022-08-01T07:37:05.173Z,85.6
2022-08-01T07:38:07.757Z,85.7
2022-08-01T07:39:05.218Z,84.8
2022-08-01T07:40:05.171Z,84.8
2022-08-01T07:41:05.168Z,85
2022-08-01T07:42:06.605Z,86.5
2022-08-01T07:43:05.169Z,84.7
2022-08-01T07:44:05.171Z,83.2
2022-08-01T07:45:05.167Z,81.6
2022-08-01T07:46:05.225Z,83.5
2022-08-01T07:47:05.975Z,84.9
2022-08-01T07:48:08.877Z,82.9
2022-08-01T07:49:05.232Z,83.1
2022-08-01T07:50:05.162Z,83.8
2022-08-01T07:51:05.180Z,83.1
2022-08-01T07:52:05.170Z,83.3
2022-08-01T07:53:05.233Z,83.6
2022-08-01T07:54:05.168Z,83.6
2022-08-01T07:55:05.180Z,81.1
2022-08-01T07:56:05.187Z,79.5
2022-08-01T07:57:05.170Z,81.3
2022-08-01T07:58:05.181Z,80.2
2022-08-01T07:59:05.188Z,80.3
2022-08-01T08:00:05.179Z,81.2
2022-08-01T08:01:05.182Z,81.5
2022-08-01T08:02:05.599Z,82.2
2022-08-01T08:03:05.189Z,82.4
2022-08-01T08:04:05.172Z,81
2022-08-01T08:05:05.175Z,79.9
2022-08-01T08:06:05.179Z,79.9
2022-08-01T08:07:05.573Z,78.9
2022-08-01T08:08:05.180Z,77
2022-08-01T08:09:05.181Z,76.5
2022-08-01T08:10:05.185Z,79.3
2022-08-01T08:11:05.190Z,79.1
2022-08-01T08:12:05.543Z,78.8
2022-08-01T08:13:05.190Z,79.1
2022-08-01T08:14:05.186Z,77.7
2022-08-01T08:16:05.188Z,80.3
2022-08-01T08:17:05.200Z,80.5
2022-08-01T08:18:05.186Z,80.8
2022-08-01T08:19:05.180Z,80.2
2022-08-01T08:20:05.190Z,81
2022-08-01T08:21:06.906Z,80.2
2022-08-01T08:22:05.531Z,78.8
2022-08-01T08:23:05.208Z,77.7
2022-08-01T08:24:05.198Z,78.1
2022-08-01T08:25:05.209Z,77.9
2022-08-01T08:26:05.194Z,79.5
2022-08-01T08:27:05.207Z,79.2
2022-08-01T08:28:05.247Z,80.8
2022-08-01T08:29:05.190Z,79.3
2022-08-01T08:30:05.205Z,76.5
2022-08-01T08:31:05.198Z,77.8
2022-08-01T08:32:05.517Z,77.4
2022-08-01T08:33:05.202Z,77.8
2022-08-01T08:34:05.209Z,76.8
2022-08-01T08:35:05.202Z,76.9
2022-08-01T08:36:05.197Z,77.3
2022-08-01T08:37:05.209Z,75.9
2022-08-01T08:38:05.204Z,73.9
2022-08-01T08:39:05.207Z,74.9
2022-08-01T08:40:05.203Z,74.9
2022-08-01T08:41:05.210Z,75.5
2022-08-01T08:42:05.618Z,74.4
2022-08-01T08:43:05.210Z,73.3
2022-08-01T08:44:05.268Z,74.3
2022-08-01T08:45:05.244Z,74.1
2022-08-01T08:46:05.236Z,74.5
2022-08-01T08:47:05.259Z,74.8
2022-08-01T08:48:05.233Z,75.5
2022-08-01T08:49:05.285Z,72.5
2022-08-01T08:50:05.215Z,72.6
2022-08-01T08:51:05.209Z,71.7
2022-08-01T08:52:05.704Z,72.1
2022-08-01T08:53:06.592Z,72.3
2022-08-01T08:54:05.257Z,70.5
2022-08-01T08:55:05.220Z,71.3
2022-08-01T08:56:05.213Z,70.2
2022-08-01T08:57:05.231Z,70.4
2022-08-01T08:58:05.213Z,70.5
2022-08-01T08:59:05.220Z,72.3
2022-08-01T09:00:05.226Z,71.4
2022-08-01T09:01:05.302Z,71.3
2022-08-01T09:02:07.790Z,71.1
2022-08-01T09:03:05.270Z,72.3
2022-08-01T09:04:05.232Z,73.2
2022-08-01T09:05:05.219Z,72.3
2022-08-01T09:06:05.236Z,73
2022-08-01T09:07:05.236Z,71.3
2022-08-01T09:08:05.279Z,70.9
2022-08-01T09:09:05.218Z,71
2022-08-01T09:10:05.235Z,71.5
2022-08-01T09:11:05.220Z,71.5
2022-08-01T09:12:05.235Z,71.5
2022-08-01T09:13:05.229Z,73.3
2022-08-01T09:14:05.230Z,71.5
2022-08-01T09:15:05.297Z,72.1
2022-08-01T09:16:05.233Z,71.2
2022-08-01T09:17:05.254Z,71.9
2022-08-01T09:18:05.242Z,73.3
2022-08-01T09:19:05.242Z,74.5
2022-08-01T09:20:05.224Z,73.3
2022-08-01T09:21:05.248Z,72.9
2022-08-01T09:22:05.527Z,69.7
2022-08-01T09:23:05.238Z,68.7
2022-08-01T09:24:05.232Z,70.6
2022-08-01T09:25:05.236Z,69.4
2022-08-01T09:26:05.235Z,68
2022-08-01T09:27:05.237Z,70.1
2022-08-01T09:28:05.232Z,70.2
2022-08-01T09:29:05.603Z,69
2022-08-01T09:30:05.240Z,65.9
2022-08-01T09:31:05.239Z,64.2
2022-08-01T09:32:05.704Z,64.7
2022-08-01T09:33:11.468Z,64.7
2022-08-01T09:34:05.242Z,66.1
2022-08-01T09:35:05.239Z,66.6
2022-08-01T09:36:05.256Z,67
2022-08-01T09:37:05.747Z,67.6
2022-08-01T09:38:05.256Z,65.7
2022-08-01T09:39:05.258Z,61.1
2022-08-01T09:40:05.239Z,61.6
2022-08-01T09:41:05.301Z,64.3
2022-08-01T09:42:05.250Z,62.4
2022-08-01T09:43:05.243Z,63.7
2022-08-01T09:44:05.250Z,63.9
2022-08-01T09:45:05.249Z,61.1
2022-08-01T09:46:05.254Z,61.6
2022-08-01T09:47:07.955Z,63.9
2022-08-01T09:48:05.255Z,62.4
2022-08-01T09:49:07.402Z,63.5
2022-08-01T09:50:10.512Z,63.9
2022-08-01T09:51:09.484Z,61.9
2022-08-01T09:52:05.256Z,62.9
2022-08-01T09:53:05.265Z,64.5
2022-08-01T09:54:05.259Z,65.4
2022-08-01T09:55:05.295Z,65.4
2022-08-01T09:56:05.258Z,64.4
2022-08-01T09:57:05.435Z,65.3
2022-08-01T09:58:05.251Z,65.7
2022-08-01T09:59:05.254Z,65.9
2022-08-01T10:00:05.272Z,62.7
2022-08-01T10:01:05.259Z,62.7
2022-08-01T10:02:05.321Z,62.6
2022-08-01T10:03:10.304Z,63
2022-08-01T10:04:05.261Z,61.1
2022-08-01T10:05:08.153Z,60.6
2022-08-01T10:06:05.272Z,59.7
2022-08-01T10:07:05.696Z,61.2
2022-08-01T10:08:07.915Z,62.6
2022-08-01T10:09:05.325Z,59.1
2022-08-01T10:11:05.262Z,61.7
2022-08-01T10:12:05.272Z,59.4
2022-08-01T10:13:05.267Z,61.4
2022-08-01T10:14:05.272Z,60.8
2022-08-01T10:15:05.273Z,61.3
2022-08-01T10:16:05.352Z,62.7
2022-08-01T10:17:05.790Z,61.6
2022-08-01T10:18:05.271Z,64
2022-08-01T10:19:05.276Z,64.7
2022-08-01T10:20:05.274Z,65.8
2022-08-01T10:21:08.740Z,66.3
2022-08-01T10:22:05.277Z,66.2
2022-08-01T10:23:06.435Z,66.1
2022-08-01T10:24:05.268Z,65.3
2022-08-01T10:25:05.277Z,65.9
2022-08-01T10:26:05.273Z,65.5
2022-08-01T10:27:05.443Z,64.9
2022-08-01T10:28:05.288Z,64.9
2022-08-01T10:29:05.288Z,63.1
2022-08-01T10:30:15.533Z,63.2
2022-08-01T10:31:05.386Z,63.3
2022-08-01T10:32:05.673Z,61.1
2022-08-01T10:33:05.793Z,61
2022-08-01T10:34:05.283Z,58.6
2022-08-01T10:35:06.703Z,59.7
2022-08-01T10:36:08.454Z,60
2022-08-01T10:37:05.801Z,57.5
2022-08-01T10:38:05.921Z,59.5
2022-08-01T10:39:05.276Z,58.8
2022-08-01T10:40:28.751Z,59.1
2022-08-01T10:41:06.533Z,58.5
2022-08-01T10:42:10.513Z,59.7
2022-08-01T10:43:05.290Z,61.3
2022-08-01T10:44:05.290Z,61.8
2022-08-01T10:45:05.288Z,60.7
2022-08-01T10:46:05.340Z,61.2
2022-08-01T10:47:05.562Z,62.5
2022-08-01T10:48:05.307Z,61.1
2022-08-01T10:49:05.373Z,62.4
2022-08-01T10:50:05.290Z,62.8
2022-08-01T10:51:05.359Z,60.4
2022-08-01T10:52:05.290Z,62.5
2022-08-01T10:53:05.624Z,63.6
2022-08-01T10:54:05.291Z,63.6
2022-08-01T10:55:05.295Z,63.9
2022-08-01T10:56:05.297Z,64.5
2022-08-01T10:57:05.710Z,65.7
2022-08-01T10:58:05.332Z,66.9
2022-08-01T10:59:06.682Z,64.9
2022-08-01T11:00:05.311Z,66.7
2022-08-01T11:01:05.367Z,65.5
2022-08-01T11:02:05.320Z,66.3
2022-08-01T11:03:05.301Z,65.4
2022-08-01T11:04:05.319Z,65.7
2022-08-01T11:06:05.304Z,62.7
2022-08-01T11:07:05.896Z,59.9
2022-08-01T11:08:05.296Z,61.4
2022-08-01T11:09:05.886Z,63.4
2022-08-01T11:10:05.306Z,58.4
2022-08-01T11:11:05.312Z,60.1
2022-08-01T11:12:06.051Z,62
2022-08-01T11:13:05.317Z,61.7
2022-08-01T11:14:05.305Z,60.9
2022-08-01T11:15:05.324Z,60.8
2022-08-01T11:16:05.886Z,60.4
2022-08-01T11:17:05.614Z,61.2
2022-08-01T11:18:05.360Z,59.4
2022-08-01T11:19:05.323Z,60.7
2022-08-01T11:20:05.315Z,59.7
2022-08-01T11:21:57.199Z,59.3
2022-08-01T11:22:05.309Z,60.5
2022-08-01T11:23:05.310Z,62.9
2022-08-01T11:24:05.365Z,60.8
2022-08-01T11:25:05.316Z,61.7
2022-08-01T11:26:10.466Z,61.7
2022-08-01T11:27:05.572Z,62.2
2022-08-01T11:28:05.314Z,61.7
2022-08-01T11:29:19.947Z,60.4
2022-08-01T11:30:05.336Z,59.9
2022-08-01T11:31:07.625Z,59.4
2022-08-01T11:32:05.331Z,60.6
2022-08-01T11:33:11.487Z,60.7
2022-08-01T11:34:05.334Z,60
2022-08-01T11:35:05.326Z,60.4
2022-08-01T11:36:05.322Z,59.7
2022-08-01T11:38:05.359Z,56.4
2022-08-01T11:39:05.337Z,56.3
2022-08-01T11:40:05.330Z,58.3
2022-08-01T11:41:05.317Z,57.3
2022-08-01T11:42:05.323Z,59.2
2022-08-01T11:43:05.327Z,59.5
2022-08-01T11:44:05.368Z,59.4
2022-08-01T11:45:05.389Z,60.1
2022-08-01T11:46:05.340Z,58.9
2022-08-01T11:47:09.848Z,57.1
2022-08-01T11:48:05.329Z,57.8
2022-08-01T11:49:05.349Z,59
2022-08-01T11:50:05.337Z,58.7
2022-08-01T11:51:05.322Z,56.2
2022-08-01T11:52:05.394Z,58.1
2022-08-01T11:53:05.335Z,56
2022-08-01T11:54:05.351Z,58.2
2022-08-01T11:55:05.343Z,56.4
2022-08-01T11:56:05.327Z,58
2022-08-01T11:57:05.821Z,56.8
2022-08-01T11:58:05.352Z,57.7
2022-08-01T11:59:05.394Z,55
2022-08-01T12:00:08.370Z,56.8
2022-08-01T12:01:05.344Z,54.5
2022-08-01T12:02:05.430Z,55.7
2022-08-01T12:03:05.399Z,54.5
2022-08-01T12:04:05.338Z,54.9
2022-08-01T12:05:05.335Z,55
2022-08-01T12:06:05.351Z,55.3
2022-08-01T12:07:05.603Z,54.6
2022-08-01T12:08:05.341Z,52.8
2022-08-01T12:09:09.252Z,53.3
2022-08-01T12:10:05.360Z,52.1
2022-08-01T12:11:06.869Z,52.5
2022-08-01T12:12:05.345Z,53.6
2022-08-01T12:13:05.402Z,54.3
2022-08-01T12:14:05.345Z,54.6
2022-08-01T12:15:05.615Z,54.2
2022-08-01T12:16:05.363Z,53.8
2022-08-01T12:17:05.494Z,53.3
2022-08-01T12:18:05.364Z,53.2
2022-08-01T12:19:05.367Z,52.6
2022-08-01T12:20:05.419Z,53.4
2022-08-01T12:21:05.361Z,54.1
